createdAt,value
2018-10-16T00:01:10.626Z,9.10
2018-10-16T00:03:45.619Z,9.20
2018-10-16T00:06:20.800Z,9.43
2018-10-16T00:08:56.260Z,8.70
2018-10-16T00:11:30.665Z,9.27
2018-10-16T00:14:06.344Z,9.97
2018-10-16T00:16:40.875Z,9.30
2018-10-16T00:22:09.072Z,9.60
2018-10-16T00:24:43.611Z,8.73
2018-10-16T00:27:18.129Z,9.23
2018-10-16T00:29:52.499Z,8.67
2018-10-16T00:32:26.817Z,9.43
2018-10-16T00:35:01.548Z,9.33
2018-10-16T00:37:36.070Z,9.27
2018-10-16T00:40:10.768Z,9.20
2018-10-16T00:42:45.284Z,9.70
2018-10-16T00:45:19.579Z,8.80
2018-10-16T00:47:54.528Z,9.33
2018-10-16T00:50:28.995Z,8.70
2018-10-16T00:53:03.335Z,8.37
2018-10-16T00:55:37.770Z,9.60
2018-10-16T00:58:12.593Z,9.70
2018-10-16T01:00:50.415Z,8.80
2018-10-16T01:03:25.245Z,9.13
2018-10-16T01:06:00.476Z,8.30
2018-10-16T01:08:34.820Z,8.90
2018-10-16T01:11:10.777Z,8.70
2018-10-16T01:13:47.972Z,9.17
2018-10-16T01:16:23.304Z,8.93
2018-10-16T01:18:58.345Z,8.97
2018-10-16T01:21:33.664Z,9.00
2018-10-16T01:24:07.971Z,8.77
2018-10-16T01:26:42.371Z,9.30
2018-10-16T01:29:16.740Z,9.77
2018-10-16T01:31:51.559Z,8.83
2018-10-16T01:34:25.887Z,8.90
2018-10-16T01:37:00.555Z,9.43
2018-10-16T01:39:34.918Z,8.80
2018-10-16T01:42:09.569Z,8.50
2018-10-16T01:44:43.932Z,8.77
2018-10-16T01:47:18.401Z,9.10
2018-10-16T01:49:52.782Z,9.30
2018-10-16T01:52:27.178Z,9.57
2018-10-16T01:55:01.604Z,9.23
2018-10-16T02:00:16.864Z,9.10
2018-10-16T02:02:51.903Z,9.33
2018-10-16T02:05:26.843Z,8.40
2018-10-16T02:08:01.623Z,10.20
2018-10-16T02:10:36.851Z,8.67
2018-10-16T02:13:11.315Z,9.47
2018-10-16T02:15:46.534Z,8.37
2018-10-16T02:18:21.486Z,9.07
2018-10-16T02:20:56.819Z,9.67
2018-10-16T02:23:31.123Z,9.70
2018-10-16T02:26:06.020Z,9.47
2018-10-16T02:28:40.544Z,9.07
2018-10-16T02:31:14.889Z,10.07
2018-10-16T02:33:49.160Z,9.40
2018-10-16T02:36:23.524Z,8.67
2018-10-16T02:38:57.817Z,9.70
2018-10-16T02:41:32.261Z,9.53
2018-10-16T02:44:07.247Z,10.40
2018-10-16T02:46:41.709Z,9.50
2018-10-16T02:49:16.084Z,9.43
2018-10-16T02:51:50.440Z,10.13
2018-10-16T02:54:25.725Z,9.90
2018-10-16T02:57:01.111Z,9.63
2018-10-16T02:59:35.446Z,9.60
2018-10-16T03:02:10.344Z,9.73
2018-10-16T03:04:44.828Z,9.70
2018-10-16T03:07:19.786Z,9.90
2018-10-16T03:09:55.120Z,9.63
2018-10-16T03:12:29.483Z,10.83
2018-10-16T03:15:06.653Z,9.70
2018-10-16T03:17:41.603Z,9.77
2018-10-16T03:20:16.612Z,9.37
2018-10-16T03:22:51.039Z,11.37
2018-10-16T03:25:25.652Z,9.50
2018-10-16T03:28:00.541Z,10.03
2018-10-16T03:30:34.961Z,9.23
2018-10-16T03:40:14.932Z,10.30
2018-10-16T03:42:50.352Z,9.23
2018-10-16T03:45:25.575Z,8.73
2018-10-16T03:48:00.076Z,9.50
2018-10-16T03:50:34.387Z,8.40
2018-10-16T03:53:09.265Z,9.77
2018-10-16T03:55:44.611Z,9.13
2018-10-16T03:58:19.044Z,8.40
2018-10-16T04:00:54.020Z,11.03
2018-10-16T04:03:28.363Z,10.50
2018-10-16T04:06:03.714Z,10.17
2018-10-16T04:08:38.135Z,9.00
2018-10-16T04:11:13.289Z,9.00
2018-10-16T04:13:49.487Z,9.87
2018-10-16T04:16:24.883Z,10.10
2018-10-16T04:19:00.700Z,9.20
2018-10-16T04:21:46.696Z,10.07
2018-10-16T04:24:21.520Z,11.73
2018-10-16T04:26:56.636Z,10.13
2018-10-16T04:29:31.176Z,10.80
2018-10-16T04:32:06.596Z,10.20
2018-10-16T04:34:40.934Z,10.10
2018-10-16T04:37:15.297Z,9.87
2018-10-16T04:39:50.200Z,9.70
2018-10-16T04:42:24.607Z,9.77
2018-10-16T04:44:59.051Z,9.90
2018-10-16T04:47:33.813Z,10.53
2018-10-16T04:50:09.670Z,9.40
2018-10-16T04:52:45.117Z,9.73
2018-10-16T04:55:19.671Z,9.50
2018-10-16T04:57:54.332Z,10.47
2018-10-16T05:00:29.108Z,8.70
2018-10-16T05:03:04.056Z,10.57
2018-10-16T05:05:38.955Z,9.43
2018-10-16T05:08:13.457Z,8.60
2018-10-16T05:10:48.541Z,9.37
2018-10-16T05:13:23.006Z,8.97
2018-10-16T05:15:58.700Z,8.87
2018-10-16T05:18:33.659Z,10.17
2018-10-16T05:21:09.189Z,10.90
2018-10-16T05:23:44.196Z,10.23
2018-10-16T05:26:20.002Z,11.97
2018-10-16T05:28:54.656Z,9.90
2018-10-16T05:31:30.123Z,9.20
2018-10-16T05:34:05.442Z,10.17
2018-10-16T05:36:40.541Z,9.23
2018-10-16T05:39:17.256Z,9.20
2018-10-16T05:41:52.432Z,8.37
2018-10-16T05:44:27.274Z,9.83
2018-10-16T05:47:02.807Z,9.50
2018-10-16T05:49:37.989Z,10.17
2018-10-16T05:52:12.328Z,10.27
2018-10-16T05:54:46.888Z,10.07
2018-10-16T05:57:22.335Z,10.73
2018-10-16T06:02:50.584Z,9.97
2018-10-16T06:05:25.761Z,10.07
2018-10-16T06:08:00.078Z,9.60
2018-10-16T06:10:35.497Z,11.60
2018-10-16T06:13:10.684Z,10.53
2018-10-16T06:31:15.255Z,10.20
2018-10-16T07:05:48.447Z,11.97
2018-10-16T07:08:23.484Z,10.57
2018-10-16T07:10:58.677Z,12.20
2018-10-16T07:13:33.128Z,13.00
2018-10-16T07:16:09.213Z,12.97
2018-10-16T07:20:15.179Z,13.73
2018-10-16T07:22:51.242Z,13.03
2018-10-16T07:25:25.866Z,12.63
2018-10-16T07:28:01.060Z,14.23
2018-10-16T07:30:36.491Z,12.67
2018-10-16T07:33:10.933Z,12.77
2018-10-16T07:35:45.528Z,12.77
2018-10-16T07:38:20.023Z,13.77
2018-10-16T07:40:54.850Z,12.03
2018-10-16T07:43:30.309Z,13.57
2018-10-16T07:46:05.210Z,13.33
2018-10-16T07:48:39.804Z,12.50
2018-10-16T07:51:14.439Z,12.10
2018-10-16T07:53:49.025Z,12.57
2018-10-16T07:56:24.601Z,12.13
2018-10-16T07:58:59.238Z,14.07
2018-10-16T08:03:03.542Z,12.63
2018-10-16T08:05:38.846Z,13.03
2018-10-16T08:08:13.396Z,13.20
2018-10-16T08:10:48.465Z,13.03
2018-10-16T08:13:23.045Z,13.70
2018-10-16T08:15:58.414Z,13.20
2018-10-16T08:18:33.894Z,12.53
2018-10-16T08:21:09.456Z,12.80
2018-10-16T08:23:45.115Z,12.70
2018-10-16T08:26:20.772Z,13.83
2018-10-16T08:28:55.304Z,14.50
2018-10-16T08:32:54.187Z,14.00
2018-10-16T08:35:28.561Z,12.50
2018-10-16T08:38:49.233Z,13.80
2018-10-16T08:41:31.109Z,12.43
2018-10-16T08:44:16.531Z,13.77
2018-10-16T08:47:02.240Z,11.27
2018-10-16T08:49:48.287Z,12.73
2018-10-16T08:59:28.141Z,12.77
2018-10-16T09:02:03.160Z,12.43
2018-10-16T09:04:37.412Z,12.80
2018-10-16T09:07:12.450Z,12.30
2018-10-16T09:09:47.700Z,12.10
2018-10-16T09:12:22.212Z,12.80
2018-10-16T09:14:57.909Z,11.87
2018-10-16T09:17:33.416Z,12.60
2018-10-16T09:20:16.027Z,12.13
2018-10-16T09:22:51.482Z,12.40
2018-10-16T09:25:25.900Z,13.77
2018-10-16T09:28:01.383Z,11.60
2018-10-16T09:30:35.746Z,13.07
2018-10-16T09:33:10.116Z,12.77
2018-10-16T09:35:44.530Z,13.10
2018-10-16T09:38:19.847Z,13.10
2018-10-16T09:40:55.091Z,12.00
2018-10-16T09:43:29.556Z,13.47
2018-10-16T09:46:05.572Z,13.77
2018-10-16T09:48:40.089Z,12.37
2018-10-16T09:51:14.474Z,13.30
2018-10-16T09:53:48.742Z,12.23
2018-10-16T09:56:24.055Z,13.40
2018-10-16T09:58:59.563Z,13.17
2018-10-16T10:01:40.092Z,14.30
2018-10-16T10:04:14.600Z,13.87
2018-10-16T10:06:49.633Z,12.70
2018-10-16T10:09:24.808Z,13.33
2018-10-16T10:11:59.524Z,13.80
2018-10-16T10:14:34.745Z,11.13
2018-10-16T10:17:24.636Z,12.73
2018-10-16T10:19:58.956Z,13.10
2018-10-16T10:22:34.300Z,13.00
2018-10-16T10:25:08.676Z,13.10
2018-10-16T10:27:44.168Z,12.40
2018-10-16T10:30:19.728Z,12.07
2018-10-16T10:32:54.080Z,12.50
2018-10-16T10:35:29.100Z,11.50
2018-10-16T10:38:04.152Z,12.33
2018-10-16T10:40:38.428Z,11.83
2018-10-16T10:43:12.957Z,12.00
2018-10-16T10:45:47.240Z,11.93
2018-10-16T10:48:21.655Z,12.30
2018-10-16T10:50:56.082Z,12.50
2018-10-16T10:53:30.423Z,12.33
2018-10-16T10:56:05.972Z,11.77
2018-10-16T10:58:41.239Z,11.40
2018-10-16T11:01:16.593Z,12.43
2018-10-16T11:03:51.391Z,12.20
2018-10-16T11:06:26.430Z,11.77
2018-10-16T11:09:01.591Z,9.77
2018-10-16T11:11:35.930Z,10.03
2018-10-16T11:14:11.984Z,10.47
2018-10-16T11:16:47.591Z,9.13
2018-10-16T11:19:23.456Z,10.60
2018-10-16T11:21:59.097Z,9.00
2018-10-16T11:24:34.557Z,9.70
2018-10-16T11:27:09.603Z,9.13
2018-10-16T11:29:44.025Z,9.00
2018-10-16T11:32:19.573Z,9.50
2018-10-16T11:34:55.259Z,10.20
2018-10-16T11:37:29.665Z,9.77
2018-10-16T11:40:04.121Z,10.47
2018-10-16T11:42:38.565Z,10.70
2018-10-16T11:45:12.876Z,7.90
2018-10-16T11:47:47.344Z,11.20
2018-10-16T11:50:21.615Z,9.20
2018-10-16T11:52:56.084Z,9.07
2018-10-16T11:55:30.400Z,8.10
2018-10-16T11:58:05.592Z,9.33
2018-10-16T12:00:40.551Z,9.40
2018-10-16T12:03:15.329Z,8.57
2018-10-16T12:05:50.551Z,9.60
2018-10-16T12:08:24.916Z,8.90
2018-10-16T12:11:00.191Z,8.07
2018-10-16T12:13:34.971Z,9.60
2018-10-16T12:16:10.527Z,8.73
2018-10-16T12:19:21.257Z,9.13
2018-10-16T12:21:56.660Z,7.67
2018-10-16T12:24:32.950Z,8.30
2018-10-16T12:27:08.208Z,8.50
2018-10-16T12:29:42.475Z,8.50
2018-10-16T12:32:18.797Z,8.83
2018-10-16T12:34:53.145Z,7.70
2018-10-16T12:37:27.446Z,8.20
2018-10-16T12:40:01.891Z,8.00
2018-10-16T12:42:36.309Z,8.17
2018-10-16T12:45:11.677Z,9.07
2018-10-16T12:47:46.143Z,9.00
2018-10-16T12:50:20.635Z,8.43
2018-10-16T12:52:55.170Z,8.77
2018-10-16T12:55:29.525Z,9.30
2018-10-16T12:58:05.402Z,9.03
2018-10-16T13:00:40.768Z,8.70
2018-10-16T13:03:15.123Z,9.00
2018-10-16T13:05:50.629Z,8.17
2018-10-16T13:08:25.074Z,7.67
2018-10-16T13:11:00.211Z,8.50
2018-10-16T13:13:34.642Z,9.30
2018-10-16T13:16:09.631Z,8.77
2018-10-16T13:18:45.151Z,9.50
2018-10-16T13:21:20.635Z,9.03
2018-10-16T13:23:56.090Z,8.93
2018-10-16T13:26:31.743Z,8.17
2018-10-16T13:29:07.110Z,9.03
2018-10-16T13:31:42.876Z,9.73
2018-10-16T13:34:17.255Z,9.20
2018-10-16T13:36:51.860Z,9.00
2018-10-16T13:39:26.162Z,9.30
2018-10-16T13:42:00.544Z,8.43
2018-10-16T13:44:35.206Z,9.90
2018-10-16T13:47:09.533Z,8.43
2018-10-16T13:49:44.604Z,9.23
2018-10-16T13:52:19.044Z,9.30
2018-10-16T13:54:53.559Z,9.00
2018-10-16T13:57:28.768Z,9.23
2018-10-16T14:00:05.557Z,8.40
2018-10-16T14:02:41.804Z,9.30
2018-10-16T14:05:17.386Z,9.17
2018-10-16T14:07:51.886Z,8.90
2018-10-16T14:10:27.147Z,8.50
2018-10-16T14:13:01.597Z,9.00
2018-10-16T14:15:36.942Z,8.57
2018-10-16T14:18:12.120Z,7.70
2018-10-16T14:20:48.120Z,8.47
2018-10-16T14:23:23.633Z,8.00
2018-10-16T14:25:59.255Z,9.10
2018-10-16T14:28:34.332Z,8.83
2018-10-16T14:31:08.912Z,8.77
2018-10-16T14:33:43.437Z,8.27
2018-10-16T14:36:18.005Z,8.60
2018-10-16T14:38:52.873Z,8.47
2018-10-16T14:41:27.451Z,9.00
2018-10-16T14:44:02.034Z,7.57
2018-10-16T14:46:36.958Z,8.77
2018-10-16T14:49:12.323Z,8.50
2018-10-16T14:51:46.880Z,8.30
2018-10-16T14:54:21.301Z,8.57
2018-10-16T14:56:56.768Z,8.50
2018-10-16T14:59:31.933Z,8.47
2018-10-16T15:02:07.297Z,8.53
2018-10-16T15:04:41.778Z,7.80
2018-10-16T15:07:17.611Z,8.50
2018-10-16T15:09:52.900Z,9.10
2018-10-16T15:12:31.322Z,8.50
2018-10-16T15:15:08.649Z,8.20
2018-10-16T15:17:44.532Z,9.13
2018-10-16T15:20:19.130Z,8.23
2018-10-16T15:22:54.546Z,7.80
2018-10-16T15:28:12.064Z,8.53
2018-10-16T15:30:46.674Z,8.33
2018-10-16T15:33:21.390Z,8.10
2018-10-16T15:35:56.096Z,9.17
2018-10-16T15:38:30.680Z,8.30
2018-10-16T15:41:06.125Z,8.40
2018-10-16T15:43:41.584Z,8.83
2018-10-16T15:46:17.340Z,8.97
2018-10-16T15:48:52.219Z,8.40
2018-10-16T15:51:28.043Z,8.50
2018-10-16T15:54:03.000Z,8.30
2018-10-16T15:56:38.384Z,9.40
2018-10-16T15:59:13.472Z,7.60
2018-10-16T16:01:48.866Z,7.67
2018-10-16T16:04:23.437Z,8.90
2018-10-16T16:06:58.516Z,9.00
2018-10-16T16:09:34.334Z,9.90
2018-10-16T16:12:08.821Z,10.17
2018-10-16T16:14:44.220Z,9.47
2018-10-16T16:19:59.805Z,8.10
2018-10-16T16:22:35.255Z,10.40
2018-10-16T16:25:11.643Z,8.00
2018-10-16T16:27:47.122Z,8.13
2018-10-16T16:30:22.474Z,8.27
2018-10-16T16:32:57.684Z,9.37
2018-10-16T16:35:32.398Z,8.60
2018-10-16T16:38:08.149Z,8.20
2018-10-16T16:40:42.714Z,14.30
2018-10-16T16:43:18.161Z,13.23
2018-10-16T16:45:53.055Z,9.40
2018-10-16T16:48:27.778Z,8.37
2018-10-16T16:51:03.027Z,11.93
2018-10-16T16:53:38.245Z,9.73
2018-10-16T16:56:14.368Z,8.83
2018-10-16T16:58:49.012Z,11.37
2018-10-16T17:01:24.327Z,10.80
2018-10-16T17:03:58.958Z,9.97
2018-10-16T17:06:34.590Z,10.90
2018-10-16T17:09:11.608Z,10.30
2018-10-16T17:11:46.144Z,10.80
2018-10-16T17:14:22.004Z,9.10
2018-10-16T17:16:56.368Z,10.80
2018-10-16T17:19:31.724Z,9.33
2018-10-16T17:22:06.291Z,9.10
2018-10-16T17:24:41.285Z,10.73
2018-10-16T17:27:15.669Z,10.70
2018-10-16T17:29:50.144Z,10.20
2018-10-16T17:32:24.574Z,9.70
2018-10-16T17:35:06.595Z,9.50
2018-10-16T17:37:41.564Z,8.27
2018-10-16T17:40:18.223Z,8.80
2018-10-16T17:42:52.706Z,8.80
2018-10-16T17:45:27.667Z,8.53
2018-10-16T17:48:02.226Z,8.87
2018-10-16T17:53:37.065Z,10.37
2018-10-16T17:56:11.451Z,9.37
2018-10-16T17:58:46.840Z,14.20
2018-10-16T18:01:21.888Z,9.40
2018-10-16T18:03:56.470Z,10.57
2018-10-16T18:06:30.985Z,9.97
2018-10-16T18:09:06.925Z,10.20
2018-10-16T18:11:41.728Z,10.20
2018-10-16T18:14:16.840Z,10.60
2018-10-16T18:16:51.171Z,9.00
2018-10-16T18:19:26.615Z,9.57
2018-10-16T18:22:01.149Z,8.90
2018-10-16T18:24:35.754Z,11.03
2018-10-16T18:27:10.929Z,9.30
2018-10-16T18:29:45.318Z,10.10
2018-10-16T18:32:22.204Z,9.40
2018-10-16T18:34:56.779Z,9.33
2018-10-16T18:37:31.391Z,9.73
2018-10-16T18:40:12.320Z,10.47
2018-10-16T18:42:47.485Z,9.40
2018-10-16T18:45:22.734Z,9.23
2018-10-16T18:47:58.021Z,9.20
2018-10-16T18:53:32.852Z,9.80
2018-10-16T18:56:08.164Z,10.90
2018-10-16T18:58:44.179Z,11.83
2018-10-16T19:01:19.796Z,9.70
2018-10-16T19:03:54.987Z,10.70
2018-10-16T19:06:29.981Z,9.93
2018-10-16T19:09:10.297Z,9.50
2018-10-16T19:13:14.572Z,9.43
2018-10-16T19:18:42.476Z,10.40
2018-10-16T19:21:21.780Z,10.40
2018-10-16T19:23:58.277Z,9.50
2018-10-16T19:33:49.713Z,10.70
2018-10-16T19:36:28.393Z,10.67
2018-10-16T19:41:51.797Z,10.53
2018-10-16T19:44:29.115Z,12.00
2018-10-16T19:47:06.152Z,10.87
2018-10-16T19:49:43.626Z,11.00
2018-10-16T19:52:18.925Z,10.40
2018-10-16T19:54:55.355Z,10.33
2018-10-16T19:57:30.471Z,10.87
2018-10-16T20:00:06.503Z,10.27
2018-10-16T20:04:06.232Z,10.70
2018-10-16T20:06:42.123Z,10.70
2018-10-16T20:09:17.515Z,9.63
2018-10-16T20:11:52.849Z,11.60
2018-10-16T20:14:28.372Z,10.57
2018-10-16T20:17:03.455Z,10.57
2018-10-16T20:19:37.899Z,12.37
2018-10-16T20:22:12.523Z,11.10
2018-10-16T20:24:47.070Z,11.33
2018-10-16T20:27:22.584Z,12.07
2018-10-16T20:29:57.125Z,11.00
2018-10-16T20:32:32.233Z,11.80
2018-10-16T20:35:06.714Z,12.07
2018-10-16T20:37:42.129Z,11.23
2018-10-16T20:40:17.007Z,12.47
2018-10-16T20:42:51.523Z,10.50
2018-10-16T20:45:26.073Z,12.03
2018-10-16T20:48:00.379Z,11.63
2018-10-16T20:50:41.000Z,12.10
2018-10-16T20:53:16.012Z,11.50
2018-10-16T20:55:50.431Z,12.27
2018-10-16T20:58:25.169Z,12.10
2018-10-16T21:01:07.797Z,12.57
2018-10-16T21:03:42.155Z,10.77
2018-10-16T21:06:16.764Z,11.03
2018-10-16T21:08:50.936Z,11.77
2018-10-16T21:11:25.330Z,12.57
2018-10-16T21:14:06.858Z,12.13
2018-10-16T21:16:41.187Z,12.17
2018-10-16T21:19:15.662Z,11.90
2018-10-16T21:21:50.131Z,13.07
2018-10-16T21:24:24.614Z,13.20
2018-10-16T21:27:06.891Z,12.70
2018-10-16T21:29:41.683Z,12.87
2018-10-16T21:32:16.875Z,12.23
2018-10-16T21:37:36.212Z,13.10
2018-10-16T21:40:11.320Z,12.50
2018-10-16T21:42:45.813Z,12.30
2018-10-16T21:45:20.181Z,11.40
2018-10-16T21:47:54.563Z,12.23
2018-10-16T21:50:35.611Z,12.70
2018-10-16T21:53:10.636Z,12.63
2018-10-16T21:55:45.019Z,13.33
2018-10-16T21:58:19.362Z,12.80
2018-10-16T22:00:59.992Z,14.60
2018-10-16T22:03:34.525Z,12.87
2018-10-16T22:06:08.919Z,12.97
2018-10-16T22:08:43.488Z,13.73
2018-10-16T22:11:17.792Z,13.67
2018-10-16T22:13:52.112Z,13.63
2018-10-16T22:16:27.130Z,15.03
2018-10-16T22:19:01.428Z,13.30
2018-10-16T22:21:35.916Z,12.77
2018-10-16T22:24:10.204Z,13.20
2018-10-16T22:26:44.797Z,13.73
2018-10-16T22:29:19.250Z,14.03
2018-10-16T22:32:02.217Z,13.90
2018-10-16T22:34:37.118Z,14.03
2018-10-16T22:37:11.729Z,14.20
2018-10-16T22:39:46.839Z,14.93
2018-10-16T22:42:21.181Z,13.73
2018-10-16T22:44:55.691Z,14.10
2018-10-16T22:47:30.239Z,14.67
2018-10-16T22:50:06.969Z,13.13
2018-10-16T22:52:41.975Z,12.20
2018-10-16T22:55:16.431Z,13.50
2018-10-16T22:57:50.744Z,13.40
2018-10-16T23:00:25.119Z,12.93
2018-10-16T23:03:00.111Z,13.10
2018-10-16T23:05:34.458Z,14.87
2018-10-16T23:08:08.896Z,13.70
2018-10-16T23:10:43.272Z,14.10
2018-10-16T23:13:17.673Z,14.37
2018-10-16T23:15:52.687Z,12.57
2018-10-16T23:18:27.193Z,13.53
2018-10-16T23:21:01.568Z,13.80
2018-10-16T23:23:35.876Z,12.33
2018-10-16T23:26:10.581Z,13.87
2018-10-16T23:28:45.272Z,14.37
2018-10-16T23:31:20.480Z,14.63
2018-10-16T23:33:55.608Z,14.00
2018-10-16T23:36:29.913Z,13.90
2018-10-16T23:41:49.279Z,13.20
2018-10-16T23:44:23.681Z,12.73
2018-10-16T23:46:58.148Z,12.80
2018-10-16T23:49:32.439Z,13.57
2018-10-16T23:52:07.240Z,13.73
2018-10-16T23:54:41.693Z,13.43
2018-10-16T23:57:16.048Z,12.40
2018-10-16T23:59:50.611Z,13.17
